sensor_id;sensor_type;location;lat;lon;timestamp;temperature;humidity
19622;DHT22;9958;33.196;-97.114;2023-07-28T00:00:05;38.10;43.00
19622;DHT22;9958;33.196;-97.114;2023-07-28T00:02:33;38.00;43.10
19622;DHT22;9958;33.196;-97.114;2023-07-28T00:05:01;37.90;42.70
19622;DHT22;9958;33.196;-97.114;2023-07-28T00:07:29;37.80;43.00
19622;DHT22;9958;33.196;-97.114;2023-07-28T00:09:57;37.80;44.10
19622;DHT22;9958;33.196;-97.114;2023-07-28T00:12:25;37.70;44.60
19622;DHT22;9958;33.196;-97.114;2023-07-28T00:14:52;37.70;44.70
19622;DHT22;9958;33.196;-97.114;2023-07-28T00:17:20;37.60;44.90
19622;DHT22;9958;33.196;-97.114;2023-07-28T00:19:48;37.60;45.20
19622;DHT22;9958;33.196;-97.114;2023-07-28T00:22:15;37.50;45.60
19622;DHT22;9958;33.196;-97.114;2023-07-28T00:24:43;37.40;45.80
19622;DHT22;9958;33.196;-97.114;2023-07-28T00:27:11;37.40;46.10
19622;DHT22;9958;33.196;-97.114;2023-07-28T00:29:41;37.20;46.90
19622;DHT22;9958;33.196;-97.114;2023-07-28T00:32:09;37.20;46.50
19622;DHT22;9958;33.196;-97.114;2023-07-28T00:34:36;37.10;46.60
19622;DHT22;9958;33.196;-97.114;2023-07-28T00:37:04;37.00;46.80
19622;DHT22;9958;33.196;-97.114;2023-07-28T00:39:32;37.00;46.90
19622;DHT22;9958;33.196;-97.114;2023-07-28T00:41:59;36.90;46.70
19622;DHT22;9958;33.196;-97.114;2023-07-28T00:44:28;36.90;46.50
19622;DHT22;9958;33.196;-97.114;2023-07-28T00:46:56;36.80;46.60
19622;DHT22;9958;33.196;-97.114;2023-07-28T00:49:23;36.70;46.50
19622;DHT22;9958;33.196;-97.114;2023-07-28T00:51:52;36.70;46.40
19622;DHT22;9958;33.196;-97.114;2023-07-28T00:54:20;36.60;46.60
19622;DHT22;9958;33.196;-97.114;2023-07-28T00:56:48;36.50;47.10
19622;DHT22;9958;33.196;-97.114;2023-07-28T00:59:15;36.40;47.50
19622;DHT22;9958;33.196;-97.114;2023-07-28T01:01:44;36.40;47.80
19622;DHT22;9958;33.196;-97.114;2023-07-28T01:04:12;36.30;47.80
19622;DHT22;9958;33.196;-97.114;2023-07-28T01:06:46;36.20;47.80
19622;DHT22;9958;33.196;-97.114;2023-07-28T01:09:17;36.20;47.90
19622;DHT22;9958;33.196;-97.114;2023-07-28T01:11:55;36.10;48.10
19622;DHT22;9958;33.196;-97.114;2023-07-28T01:14:22;36.00;48.00
19622;DHT22;9958;33.196;-97.114;2023-07-28T01:16:51;36.00;48.20
19622;DHT22;9958;33.196;-97.114;2023-07-28T01:19:20;35.90;48.30
19622;DHT22;9958;33.196;-97.114;2023-07-28T01:21:54;35.80;48.40
19622;DHT22;9958;33.196;-97.114;2023-07-28T01:24:29;35.80;48.50
19622;DHT22;9958;33.196;-97.114;2023-07-28T01:27:02;35.70;48.70
19622;DHT22;9958;33.196;-97.114;2023-07-28T01:29:30;35.70;49.00
19622;DHT22;9958;33.196;-97.114;2023-07-28T01:32:00;35.60;48.90
19622;DHT22;9958;33.196;-97.114;2023-07-28T01:34:27;35.50;48.90
19622;DHT22;9958;33.196;-97.114;2023-07-28T01:36:55;35.40;49.00
19622;DHT22;9958;33.196;-97.114;2023-07-28T01:39:22;35.40;49.20
19622;DHT22;9958;33.196;-97.114;2023-07-28T01:41:50;35.30;49.30
19622;DHT22;9958;33.196;-97.114;2023-07-28T01:44:18;35.20;49.60
19622;DHT22;9958;33.196;-97.114;2023-07-28T01:46:46;35.20;49.70
19622;DHT22;9958;33.196;-97.114;2023-07-28T01:49:14;35.20;49.80
19622;DHT22;9958;33.196;-97.114;2023-07-28T01:51:41;35.10;50.50
19622;DHT22;9958;33.196;-97.114;2023-07-28T01:54:09;35.00;50.80
19622;DHT22;9958;33.196;-97.114;2023-07-28T01:56:36;34.90;51.10
19622;DHT22;9958;33.196;-97.114;2023-07-28T01:59:04;34.90;51.80
19622;DHT22;9958;33.196;-97.114;2023-07-28T02:01:33;34.80;52.10
19622;DHT22;9958;33.196;-97.114;2023-07-28T02:04:00;34.70;52.40
19622;DHT22;9958;33.196;-97.114;2023-07-28T02:06:28;34.70;52.60
19622;DHT22;9958;33.196;-97.114;2023-07-28T02:08:57;34.60;52.90
19622;DHT22;9958;33.196;-97.114;2023-07-28T02:11:25;34.60;53.10
19622;DHT22;9958;33.196;-97.114;2023-07-28T02:13:52;34.50;53.40
19622;DHT22;9958;33.196;-97.114;2023-07-28T02:16:20;34.40;53.40
19622;DHT22;9958;33.196;-97.114;2023-07-28T02:18:48;34.40;53.80
19622;DHT22;9958;33.196;-97.114;2023-07-28T02:21:16;34.40;54.00
19622;DHT22;9958;33.196;-97.114;2023-07-28T02:23:44;34.30;54.60
19622;DHT22;9958;33.196;-97.114;2023-07-28T02:26:11;34.20;54.70
19622;DHT22;9958;33.196;-97.114;2023-07-28T02:28:39;34.20;54.80
19622;DHT22;9958;33.196;-97.114;2023-07-28T02:31:06;34.20;55.00
19622;DHT22;9958;33.196;-97.114;2023-07-28T02:33:34;34.10;55.20
19622;DHT22;9958;33.196;-97.114;2023-07-28T02:36:04;34.10;55.40
19622;DHT22;9958;33.196;-97.114;2023-07-28T02:38:31;34.00;55.50
19622;DHT22;9958;33.196;-97.114;2023-07-28T02:40:59;34.00;55.70
19622;DHT22;9958;33.196;-97.114;2023-07-28T02:43:27;33.90;55.90
19622;DHT22;9958;33.196;-97.114;2023-07-28T02:45:54;33.90;56.10
19622;DHT22;9958;33.196;-97.114;2023-07-28T02:48:22;33.90;56.30
19622;DHT22;9958;33.196;-97.114;2023-07-28T02:50:51;33.80;56.40
19622;DHT22;9958;33.196;-97.114;2023-07-28T02:53:19;33.80;56.70
19622;DHT22;9958;33.196;-97.114;2023-07-28T02:55:48;33.70;56.70
19622;DHT22;9958;33.196;-97.114;2023-07-28T02:58:15;33.70;56.90
19622;DHT22;9958;33.196;-97.114;2023-07-28T03:00:44;33.60;57.00
19622;DHT22;9958;33.196;-97.114;2023-07-28T03:03:12;33.60;57.20
19622;DHT22;9958;33.196;-97.114;2023-07-28T03:05:40;33.60;57.60
19622;DHT22;9958;33.196;-97.114;2023-07-28T03:08:08;33.50;57.50
19622;DHT22;9958;33.196;-97.114;2023-07-28T03:10:36;33.50;57.50
19622;DHT22;9958;33.196;-97.114;2023-07-28T03:13:04;33.50;57.60
19622;DHT22;9958;33.196;-97.114;2023-07-28T03:15:32;33.40;57.80
19622;DHT22;9958;33.196;-97.114;2023-07-28T03:17:59;33.30;57.90
19622;DHT22;9958;33.196;-97.114;2023-07-28T03:20:27;33.30;58.10
19622;DHT22;9958;33.196;-97.114;2023-07-28T03:22:54;33.30;58.20
19622;DHT22;9958;33.196;-97.114;2023-07-28T03:25:22;33.20;58.30
19622;DHT22;9958;33.196;-97.114;2023-07-28T03:27:50;33.10;58.30
19622;DHT22;9958;33.196;-97.114;2023-07-28T03:30:19;33.20;58.60
19622;DHT22;9958;33.196;-97.114;2023-07-28T03:32:46;33.10;58.50
19622;DHT22;9958;33.196;-97.114;2023-07-28T03:35:14;33.10;58.70
19622;DHT22;9958;33.196;-97.114;2023-07-28T03:37:42;33.10;58.70
19622;DHT22;9958;33.196;-97.114;2023-07-28T03:40:10;33.00;58.80
19622;DHT22;9958;33.196;-97.114;2023-07-28T03:42:38;33.00;58.80
19622;DHT22;9958;33.196;-97.114;2023-07-28T03:45:07;32.90;58.90
19622;DHT22;9958;33.196;-97.114;2023-07-28T03:47:35;32.90;59.00
19622;DHT22;9958;33.196;-97.114;2023-07-28T03:50:06;32.90;59.30
19622;DHT22;9958;33.196;-97.114;2023-07-28T03:52:34;32.80;59.40
19622;DHT22;9958;33.196;-97.114;2023-07-28T03:55:01;32.80;59.40
19622;DHT22;9958;33.196;-97.114;2023-07-28T03:57:29;32.70;59.40
19622;DHT22;9958;33.196;-97.114;2023-07-28T03:59:57;32.70;59.40
19622;DHT22;9958;33.196;-97.114;2023-07-28T04:02:25;32.60;59.50
19622;DHT22;9958;33.196;-97.114;2023-07-28T04:04:54;32.60;59.60
19622;DHT22;9958;33.196;-97.114;2023-07-28T04:07:22;32.60;59.60
19622;DHT22;9958;33.196;-97.114;2023-07-28T04:09:49;32.60;59.70
19622;DHT22;9958;33.196;-97.114;2023-07-28T04:12:17;32.50;59.80
19622;DHT22;9958;33.196;-97.114;2023-07-28T04:14:44;32.50;59.90
19622;DHT22;9958;33.196;-97.114;2023-07-28T04:17:12;32.40;60.00
19622;DHT22;9958;33.196;-97.114;2023-07-28T04:19:40;32.40;60.00
19622;DHT22;9958;33.196;-97.114;2023-07-28T04:22:08;32.40;60.00
19622;DHT22;9958;33.196;-97.114;2023-07-28T04:24:36;32.30;60.20
19622;DHT22;9958;33.196;-97.114;2023-07-28T04:27:04;32.30;60.50
19622;DHT22;9958;33.196;-97.114;2023-07-28T04:29:31;32.20;60.80
19622;DHT22;9958;33.196;-97.114;2023-07-28T04:31:59;32.20;61.60
19622;DHT22;9958;33.196;-97.114;2023-07-28T04:34:27;32.10;61.40
19622;DHT22;9958;33.196;-97.114;2023-07-28T04:36:55;32.10;61.70
19622;DHT22;9958;33.196;-97.114;2023-07-28T04:39:23;32.00;61.80
19622;DHT22;9958;33.196;-97.114;2023-07-28T04:41:50;31.90;62.20
19622;DHT22;9958;33.196;-97.114;2023-07-28T04:44:18;31.90;62.40
19622;DHT22;9958;33.196;-97.114;2023-07-28T04:46:46;31.80;62.50
19622;DHT22;9958;33.196;-97.114;2023-07-28T04:49:14;31.80;62.80
19622;DHT22;9958;33.196;-97.114;2023-07-28T04:51:42;31.70;63.20
19622;DHT22;9958;33.196;-97.114;2023-07-28T04:54:10;31.70;63.50
19622;DHT22;9958;33.196;-97.114;2023-07-28T04:56:38;31.60;63.60
19622;DHT22;9958;33.196;-97.114;2023-07-28T04:59:06;31.60;63.70
19622;DHT22;9958;33.196;-97.114;2023-07-28T05:01:33;31.50;63.70
19622;DHT22;9958;33.196;-97.114;2023-07-28T05:04:01;31.50;63.80
19622;DHT22;9958;33.196;-97.114;2023-07-28T05:06:29;31.40;64.10
19622;DHT22;9958;33.196;-97.114;2023-07-28T05:08:56;31.40;64.60
19622;DHT22;9958;33.196;-97.114;2023-07-28T05:11:25;31.40;64.60
19622;DHT22;9958;33.196;-97.114;2023-07-28T05:13:52;31.30;64.70
19622;DHT22;9958;33.196;-97.114;2023-07-28T05:16:20;31.30;64.90
19622;DHT22;9958;33.196;-97.114;2023-07-28T05:18:47;31.30;64.90
19622;DHT22;9958;33.196;-97.114;2023-07-28T05:21:15;31.30;64.90
19622;DHT22;9958;33.196;-97.114;2023-07-28T05:23:43;31.30;65.00
19622;DHT22;9958;33.196;-97.114;2023-07-28T05:26:10;31.30;65.00
19622;DHT22;9958;33.196;-97.114;2023-07-28T05:28:39;31.30;65.50
19622;DHT22;9958;33.196;-97.114;2023-07-28T05:31:07;31.20;65.30
19622;DHT22;9958;33.196;-97.114;2023-07-28T05:33:34;31.20;65.40
19622;DHT22;9958;33.196;-97.114;2023-07-28T05:36:02;31.20;65.40
19622;DHT22;9958;33.196;-97.114;2023-07-28T05:38:30;31.20;65.40
19622;DHT22;9958;33.196;-97.114;2023-07-28T05:40:58;31.20;65.40
19622;DHT22;9958;33.196;-97.114;2023-07-28T05:43:27;31.20;65.50
19622;DHT22;9958;33.196;-97.114;2023-07-28T05:45:56;31.20;65.60
19622;DHT22;9958;33.196;-97.114;2023-07-28T05:48:23;31.20;65.70
19622;DHT22;9958;33.196;-97.114;2023-07-28T05:50:51;31.20;65.90
19622;DHT22;9958;33.196;-97.114;2023-07-28T05:53:20;31.10;66.10
19622;DHT22;9958;33.196;-97.114;2023-07-28T05:55:48;31.10;66.50
19622;DHT22;9958;33.196;-97.114;2023-07-28T05:58:15;31.10;66.60
19622;DHT22;9958;33.196;-97.114;2023-07-28T06:00:43;31.10;66.60
19622;DHT22;9958;33.196;-97.114;2023-07-28T06:03:11;31.00;66.80
19622;DHT22;9958;33.196;-97.114;2023-07-28T06:05:39;31.00;67.00
19622;DHT22;9958;33.196;-97.114;2023-07-28T06:08:07;31.00;67.40
19622;DHT22;9958;33.196;-97.114;2023-07-28T06:10:35;30.90;67.40
19622;DHT22;9958;33.196;-97.114;2023-07-28T06:13:02;30.90;67.50
19622;DHT22;9958;33.196;-97.114;2023-07-28T06:15:30;30.80;67.40
19622;DHT22;9958;33.196;-97.114;2023-07-28T06:17:57;30.80;68.00
19622;DHT22;9958;33.196;-97.114;2023-07-28T06:20:26;30.80;68.00
19622;DHT22;9958;33.196;-97.114;2023-07-28T06:22:54;30.80;68.30
19622;DHT22;9958;33.196;-97.114;2023-07-28T06:25:21;30.70;68.10
19622;DHT22;9958;33.196;-97.114;2023-07-28T06:27:49;30.70;68.40
19622;DHT22;9958;33.196;-97.114;2023-07-28T06:30:16;30.60;68.60
19622;DHT22;9958;33.196;-97.114;2023-07-28T06:32:44;30.60;68.70
19622;DHT22;9958;33.196;-97.114;2023-07-28T06:35:12;30.50;68.70
19622;DHT22;9958;33.196;-97.114;2023-07-28T06:37:40;30.50;68.70
19622;DHT22;9958;33.196;-97.114;2023-07-28T06:40:09;30.40;68.80
19622;DHT22;9958;33.196;-97.114;2023-07-28T06:42:36;30.40;69.00
19622;DHT22;9958;33.196;-97.114;2023-07-28T06:45:05;30.30;69.00
19622;DHT22;9958;33.196;-97.114;2023-07-28T06:47:32;30.30;69.10
19622;DHT22;9958;33.196;-97.114;2023-07-28T06:50:00;30.30;69.10
19622;DHT22;9958;33.196;-97.114;2023-07-28T06:52:28;30.20;69.30
19622;DHT22;9958;33.196;-97.114;2023-07-28T06:54:56;30.20;69.60
19622;DHT22;9958;33.196;-97.114;2023-07-28T06:57:24;30.10;69.70
19622;DHT22;9958;33.196;-97.114;2023-07-28T06:59:52;30.10;69.70
19622;DHT22;9958;33.196;-97.114;2023-07-28T07:02:19;30.00;69.80
19622;DHT22;9958;33.196;-97.114;2023-07-28T07:04:47;30.00;69.90
19622;DHT22;9958;33.196;-97.114;2023-07-28T07:07:15;30.00;70.00
19622;DHT22;9958;33.196;-97.114;2023-07-28T07:09:43;30.00;70.30
19622;DHT22;9958;33.196;-97.114;2023-07-28T07:12:12;29.90;70.60
19622;DHT22;9958;33.196;-97.114;2023-07-28T07:14:40;29.80;70.50
19622;DHT22;9958;33.196;-97.114;2023-07-28T07:17:07;29.90;70.60
19622;DHT22;9958;33.196;-97.114;2023-07-28T07:19:35;29.80;70.60
19622;DHT22;9958;33.196;-97.114;2023-07-28T07:22:03;29.70;70.40
19622;DHT22;9958;33.196;-97.114;2023-07-28T07:24:31;29.70;71.30
19622;DHT22;9958;33.196;-97.114;2023-07-28T07:26:58;29.60;71.00
19622;DHT22;9958;33.196;-97.114;2023-07-28T07:29:27;29.60;71.10
19622;DHT22;9958;33.196;-97.114;2023-07-28T07:31:54;29.60;71.50
19622;DHT22;9958;33.196;-97.114;2023-07-28T07:34:23;29.60;71.70
19622;DHT22;9958;33.196;-97.114;2023-07-28T07:36:51;29.50;72.00
19622;DHT22;9958;33.196;-97.114;2023-07-28T07:39:18;29.50;72.10
19622;DHT22;9958;33.196;-97.114;2023-07-28T07:41:46;29.40;72.20
19622;DHT22;9958;33.196;-97.114;2023-07-28T07:44:14;29.40;72.60
19622;DHT22;9958;33.196;-97.114;2023-07-28T07:46:43;29.40;72.50
19622;DHT22;9958;33.196;-97.114;2023-07-28T07:49:10;29.40;72.70
19622;DHT22;9958;33.196;-97.114;2023-07-28T07:51:38;29.30;72.60
19622;DHT22;9958;33.196;-97.114;2023-07-28T07:54:06;29.30;72.60
19622;DHT22;9958;33.196;-97.114;2023-07-28T07:56:33;29.30;73.50
19622;DHT22;9958;33.196;-97.114;2023-07-28T07:59:01;29.30;72.60
19622;DHT22;9958;33.196;-97.114;2023-07-28T08:01:29;29.20;72.60
19622;DHT22;9958;33.196;-97.114;2023-07-28T08:03:57;29.20;72.70
19622;DHT22;9958;33.196;-97.114;2023-07-28T08:06:25;29.10;72.90
19622;DHT22;9958;33.196;-97.114;2023-07-28T08:08:53;29.10;73.10
19622;DHT22;9958;33.196;-97.114;2023-07-28T08:11:23;29.20;73.50
19622;DHT22;9958;33.196;-97.114;2023-07-28T08:13:50;29.10;73.50
19622;DHT22;9958;33.196;-97.114;2023-07-28T08:16:18;29.10;73.60
19622;DHT22;9958;33.196;-97.114;2023-07-28T08:18:45;29.10;73.70
19622;DHT22;9958;33.196;-97.114;2023-07-28T08:21:14;29.00;73.70
19622;DHT22;9958;33.196;-97.114;2023-07-28T08:23:42;29.00;73.90
19622;DHT22;9958;33.196;-97.114;2023-07-28T08:26:10;29.00;74.00
19622;DHT22;9958;33.196;-97.114;2023-07-28T08:28:37;29.00;74.00
19622;DHT22;9958;33.196;-97.114;2023-07-28T08:31:05;29.00;73.90
19622;DHT22;9958;33.196;-97.114;2023-07-28T08:33:33;29.00;74.10
19622;DHT22;9958;33.196;-97.114;2023-07-28T08:36:00;29.00;74.30
19622;DHT22;9958;33.196;-97.114;2023-07-28T08:38:29;29.00;74.30
19622;DHT22;9958;33.196;-97.114;2023-07-28T08:40:57;29.00;74.30
19622;DHT22;9958;33.196;-97.114;2023-07-28T08:43:25;28.90;74.50
19622;DHT22;9958;33.196;-97.114;2023-07-28T08:45:54;28.90;74.80
19622;DHT22;9958;33.196;-97.114;2023-07-28T08:48:22;28.90;75.00
19622;DHT22;9958;33.196;-97.114;2023-07-28T08:50:49;28.90;75.20
19622;DHT22;9958;33.196;-97.114;2023-07-28T08:53:18;28.90;75.40
19622;DHT22;9958;33.196;-97.114;2023-07-28T08:55:47;28.80;75.50
19622;DHT22;9958;33.196;-97.114;2023-07-28T08:58:16;28.80;75.80
19622;DHT22;9958;33.196;-97.114;2023-07-28T09:00:44;28.80;75.90
19622;DHT22;9958;33.196;-97.114;2023-07-28T09:03:11;28.80;76.00
19622;DHT22;9958;33.196;-97.114;2023-07-28T09:05:39;28.80;76.50
19622;DHT22;9958;33.196;-97.114;2023-07-28T09:08:07;28.80;76.90
19622;DHT22;9958;33.196;-97.114;2023-07-28T09:10:41;28.70;77.20
19622;DHT22;9958;33.196;-97.114;2023-07-28T09:13:11;28.80;77.50
19622;DHT22;9958;33.196;-97.114;2023-07-28T09:15:39;28.80;77.80
19622;DHT22;9958;33.196;-97.114;2023-07-28T09:18:08;28.70;77.80
19622;DHT22;9958;33.196;-97.114;2023-07-28T09:20:37;28.80;77.90
19622;DHT22;9958;33.196;-97.114;2023-07-28T09:23:05;28.70;78.30
19622;DHT22;9958;33.196;-97.114;2023-07-28T09:25:34;28.70;78.60
19622;DHT22;9958;33.196;-97.114;2023-07-28T09:28:03;28.70;78.80
19622;DHT22;9958;33.196;-97.114;2023-07-28T09:30:45;28.70;79.10
19622;DHT22;9958;33.196;-97.114;2023-07-28T09:33:13;28.70;79.70
19622;DHT22;9958;33.196;-97.114;2023-07-28T09:35:48;28.70;79.70
19622;DHT22;9958;33.196;-97.114;2023-07-28T09:38:16;28.60;80.20
19622;DHT22;9958;33.196;-97.114;2023-07-28T09:40:44;28.60;80.20
19622;DHT22;9958;33.196;-97.114;2023-07-28T09:43:12;28.50;80.50
19622;DHT22;9958;33.196;-97.114;2023-07-28T09:45:42;28.60;80.80
19622;DHT22;9958;33.196;-97.114;2023-07-28T09:48:10;28.50;81.00
19622;DHT22;9958;33.196;-97.114;2023-07-28T09:50:40;28.50;81.70
19622;DHT22;9958;33.196;-97.114;2023-07-28T09:53:09;28.50;81.70
19622;DHT22;9958;33.196;-97.114;2023-07-28T09:55:39;28.40;81.60
19622;DHT22;9958;33.196;-97.114;2023-07-28T09:58:10;28.40;81.60
19622;DHT22;9958;33.196;-97.114;2023-07-28T10:00:39;28.40;82.20
19622;DHT22;9958;33.196;-97.114;2023-07-28T10:03:07;28.30;82.70
19622;DHT22;9958;33.196;-97.114;2023-07-28T10:05:37;28.30;82.90
19622;DHT22;9958;33.196;-97.114;2023-07-28T10:08:06;28.30;83.00
19622;DHT22;9958;33.196;-97.114;2023-07-28T10:10:34;28.30;83.30
19622;DHT22;9958;33.196;-97.114;2023-07-28T10:13:02;28.20;83.40
19622;DHT22;9958;33.196;-97.114;2023-07-28T10:15:32;28.20;83.60
19622;DHT22;9958;33.196;-97.114;2023-07-28T10:18:00;28.20;84.20
19622;DHT22;9958;33.196;-97.114;2023-07-28T10:20:32;28.20;84.40
19622;DHT22;9958;33.196;-97.114;2023-07-28T10:23:05;28.10;84.80
19622;DHT22;9958;33.196;-97.114;2023-07-28T10:25:35;28.10;85.10
19622;DHT22;9958;33.196;-97.114;2023-07-28T10:28:03;28.00;85.20
19622;DHT22;9958;33.196;-97.114;2023-07-28T10:30:36;28.00;85.20
19622;DHT22;9958;33.196;-97.114;2023-07-28T10:33:04;28.00;85.60
19622;DHT22;9958;33.196;-97.114;2023-07-28T10:35:32;27.90;85.80
19622;DHT22;9958;33.196;-97.114;2023-07-28T10:38:31;27.90;86.00
19622;DHT22;9958;33.196;-97.114;2023-07-28T10:41:17;27.90;86.40
19622;DHT22;9958;33.196;-97.114;2023-07-28T10:43:46;27.80;86.80
19622;DHT22;9958;33.196;-97.114;2023-07-28T10:46:16;27.80;87.40
19622;DHT22;9958;33.196;-97.114;2023-07-28T10:48:45;27.80;87.70
19622;DHT22;9958;33.196;-97.114;2023-07-28T10:51:20;27.70;88.20
19622;DHT22;9958;33.196;-97.114;2023-07-28T10:53:51;27.70;88.40
19622;DHT22;9958;33.196;-97.114;2023-07-28T10:56:19;27.70;88.90
19622;DHT22;9958;33.196;-97.114;2023-07-28T10:58:47;27.70;89.20
19622;DHT22;9958;33.196;-97.114;2023-07-28T11:01:25;27.60;89.60
19622;DHT22;9958;33.196;-97.114;2023-07-28T11:03:57;27.60;89.50
19622;DHT22;9958;33.196;-97.114;2023-07-28T11:06:34;27.50;89.60
19622;DHT22;9958;33.196;-97.114;2023-07-28T11:09:02;27.50;90.00
19622;DHT22;9958;33.196;-97.114;2023-07-28T11:11:32;27.50;90.20
19622;DHT22;9958;33.196;-97.114;2023-07-28T11:14:01;27.50;90.10
19622;DHT22;9958;33.196;-97.114;2023-07-28T11:16:30;27.40;90.20
19622;DHT22;9958;33.196;-97.114;2023-07-28T11:19:01;27.40;90.30
19622;DHT22;9958;33.196;-97.114;2023-07-28T11:21:29;27.40;90.40
19622;DHT22;9958;33.196;-97.114;2023-07-28T11:23:56;27.30;90.60
19622;DHT22;9958;33.196;-97.114;2023-07-28T11:26:25;27.30;90.60
19622;DHT22;9958;33.196;-97.114;2023-07-28T11:28:54;27.30;90.80
19622;DHT22;9958;33.196;-97.114;2023-07-28T11:31:24;27.30;91.00
19622;DHT22;9958;33.196;-97.114;2023-07-28T11:33:52;27.30;91.10
19622;DHT22;9958;33.196;-97.114;2023-07-28T11:36:24;27.30;91.10
19622;DHT22;9958;33.196;-97.114;2023-07-28T11:38:53;27.20;91.30
19622;DHT22;9958;33.196;-97.114;2023-07-28T11:41:21;27.20;91.50
19622;DHT22;9958;33.196;-97.114;2023-07-28T11:43:50;27.20;91.60
19622;DHT22;9958;33.196;-97.114;2023-07-28T11:46:35;27.20;91.70
19622;DHT22;9958;33.196;-97.114;2023-07-28T11:49:13;27.20;91.80
19622;DHT22;9958;33.196;-97.114;2023-07-28T11:51:43;27.20;91.80
19622;DHT22;9958;33.196;-97.114;2023-07-28T11:54:12;27.20;91.90
19622;DHT22;9958;33.196;-97.114;2023-07-28T11:56:41;27.10;92.00
19622;DHT22;9958;33.196;-97.114;2023-07-28T11:59:10;27.10;92.00
19622;DHT22;9958;33.196;-97.114;2023-07-28T12:01:54;27.20;92.00
19622;DHT22;9958;33.196;-97.114;2023-07-28T12:04:25;27.20;92.00
19622;DHT22;9958;33.196;-97.114;2023-07-28T12:07:05;27.20;92.10
19622;DHT22;9958;33.196;-97.114;2023-07-28T12:09:33;27.30;92.10
19622;DHT22;9958;33.196;-97.114;2023-07-28T12:12:16;27.30;92.10
19622;DHT22;9958;33.196;-97.114;2023-07-28T12:14:45;27.40;92.20
19622;DHT22;9958;33.196;-97.114;2023-07-28T12:17:14;27.50;92.10
19622;DHT22;9958;33.196;-97.114;2023-07-28T12:19:42;27.60;92.10
19622;DHT22;9958;33.196;-97.114;2023-07-28T12:22:10;27.70;92.10
19622;DHT22;9958;33.196;-97.114;2023-07-28T12:24:38;27.80;91.80
19622;DHT22;9958;33.196;-97.114;2023-07-28T12:27:09;27.90;91.40
19622;DHT22;9958;33.196;-97.114;2023-07-28T12:29:37;28.10;91.40
19622;DHT22;9958;33.196;-97.114;2023-07-28T12:32:06;28.40;91.10
19622;DHT22;9958;33.196;-97.114;2023-07-28T12:34:34;28.70;90.70
19622;DHT22;9958;33.196;-97.114;2023-07-28T12:37:02;29.10;90.10
19622;DHT22;9958;33.196;-97.114;2023-07-28T12:39:30;29.80;88.20
19622;DHT22;9958;33.196;-97.114;2023-07-28T12:41:57;30.60;85.30
19622;DHT22;9958;33.196;-97.114;2023-07-28T12:44:25;31.60;82.00
19622;DHT22;9958;33.196;-97.114;2023-07-28T12:46:53;32.50;78.90
19622;DHT22;9958;33.196;-97.114;2023-07-28T12:49:21;33.40;75.70
19622;DHT22;9958;33.196;-97.114;2023-07-28T12:51:49;34.30;72.50
19622;DHT22;9958;33.196;-97.114;2023-07-28T12:54:16;35.20;69.50
19622;DHT22;9958;33.196;-97.114;2023-07-28T12:56:44;36.00;67.30
19622;DHT22;9958;33.196;-97.114;2023-07-28T12:59:12;36.70;65.00
19622;DHT22;9958;33.196;-97.114;2023-07-28T13:01:40;37.30;63.00
19622;DHT22;9958;33.196;-97.114;2023-07-28T13:04:08;38.00;61.20
19622;DHT22;9958;33.196;-97.114;2023-07-28T13:06:36;38.70;59.10
19622;DHT22;9958;33.196;-97.114;2023-07-28T13:09:04;39.40;58.20
19622;DHT22;9958;33.196;-97.114;2023-07-28T13:11:31;39.90;57.10
19622;DHT22;9958;33.196;-97.114;2023-07-28T13:13:59;40.40;55.90
19622;DHT22;9958;33.196;-97.114;2023-07-28T13:16:27;40.70;54.90
19622;DHT22;9958;33.196;-97.114;2023-07-28T13:18:54;40.70;54.30
19622;DHT22;9958;33.196;-97.114;2023-07-28T13:21:23;40.60;54.20
19622;DHT22;9958;33.196;-97.114;2023-07-28T13:23:52;40.30;54.50
19622;DHT22;9958;33.196;-97.114;2023-07-28T13:26:19;39.90;54.90
19622;DHT22;9958;33.196;-97.114;2023-07-28T13:28:47;39.60;55.50
19622;DHT22;9958;33.196;-97.114;2023-07-28T13:31:16;39.10;56.40
19622;DHT22;9958;33.196;-97.114;2023-07-28T13:33:44;38.70;56.90
19622;DHT22;9958;33.196;-97.114;2023-07-28T13:36:12;38.20;57.70
19622;DHT22;9958;33.196;-97.114;2023-07-28T13:38:39;37.80;58.50
19622;DHT22;9958;33.196;-97.114;2023-07-28T13:41:08;37.40;58.80
19622;DHT22;9958;33.196;-97.114;2023-07-28T13:43:36;37.10;59.50
19622;DHT22;9958;33.196;-97.114;2023-07-28T13:46:04;36.70;60.00
19622;DHT22;9958;33.196;-97.114;2023-07-28T13:48:31;36.40;60.90
19622;DHT22;9958;33.196;-97.114;2023-07-28T13:50:59;36.20;61.20
19622;DHT22;9958;33.196;-97.114;2023-07-28T13:53:27;36.00;62.20
19622;DHT22;9958;33.196;-97.114;2023-07-28T13:55:55;35.90;62.90
19622;DHT22;9958;33.196;-97.114;2023-07-28T13:58:24;35.80;62.70
19622;DHT22;9958;33.196;-97.114;2023-07-28T14:00:51;35.70;62.80
19622;DHT22;9958;33.196;-97.114;2023-07-28T14:03:19;35.60;63.30
19622;DHT22;9958;33.196;-97.114;2023-07-28T14:05:47;35.50;63.10
19622;DHT22;9958;33.196;-97.114;2023-07-28T14:08:15;35.40;62.80
19622;DHT22;9958;33.196;-97.114;2023-07-28T14:10:44;35.40;63.40
19622;DHT22;9958;33.196;-97.114;2023-07-28T14:13:12;35.30;63.80
19622;DHT22;9958;33.196;-97.114;2023-07-28T14:15:40;35.30;63.50
19622;DHT22;9958;33.196;-97.114;2023-07-28T14:18:08;35.30;64.00
19622;DHT22;9958;33.196;-97.114;2023-07-28T14:20:36;35.30;64.30
19622;DHT22;9958;33.196;-97.114;2023-07-28T14:23:21;35.40;64.00
19622;DHT22;9958;33.196;-97.114;2023-07-28T14:25:49;35.40;63.60
19622;DHT22;9958;33.196;-97.114;2023-07-28T14:28:16;35.40;62.90
19622;DHT22;9958;33.196;-97.114;2023-07-28T14:30:45;35.40;62.70
19622;DHT22;9958;33.196;-97.114;2023-07-28T14:33:13;35.50;63.20
19622;DHT22;9958;33.196;-97.114;2023-07-28T14:35:41;35.70;63.30
19622;DHT22;9958;33.196;-97.114;2023-07-28T14:38:09;35.70;62.80
19622;DHT22;9958;33.196;-97.114;2023-07-28T14:40:36;35.80;62.80
19622;DHT22;9958;33.196;-97.114;2023-07-28T14:43:06;35.90;62.50
19622;DHT22;9958;33.196;-97.114;2023-07-28T14:45:34;35.90;62.10
19622;DHT22;9958;33.196;-97.114;2023-07-28T14:48:03;36.00;62.00
19622;DHT22;9958;33.196;-97.114;2023-07-28T14:50:30;36.10;61.30
19622;DHT22;9958;33.196;-97.114;2023-07-28T14:52:58;36.30;60.40
19622;DHT22;9958;33.196;-97.114;2023-07-28T14:55:26;36.40;60.00
19622;DHT22;9958;33.196;-97.114;2023-07-28T14:57:54;36.40;59.30
19622;DHT22;9958;33.196;-97.114;2023-07-28T15:00:22;36.50;58.90
19622;DHT22;9958;33.196;-97.114;2023-07-28T15:02:50;36.50;59.00
19622;DHT22;9958;33.196;-97.114;2023-07-28T15:05:18;36.50;58.90
19622;DHT22;9958;33.196;-97.114;2023-07-28T15:07:46;36.60;58.80
19622;DHT22;9958;33.196;-97.114;2023-07-28T15:10:13;36.70;59.10
19622;DHT22;9958;33.196;-97.114;2023-07-28T15:12:41;36.80;58.90
19622;DHT22;9958;33.196;-97.114;2023-07-28T15:15:10;36.90;58.20
19622;DHT22;9958;33.196;-97.114;2023-07-28T15:17:38;37.00;58.00
19622;DHT22;9958;33.196;-97.114;2023-07-28T15:20:06;37.10;57.60
19622;DHT22;9958;33.196;-97.114;2023-07-28T15:22:35;37.30;56.60